createdAt,value
2022-09-06T00:01:14.500Z,11.30
2022-09-06T00:03:41.416Z,11.35
2022-09-06T00:06:14.244Z,11.55
2022-09-06T00:08:42.792Z,11.25
2022-09-06T00:11:09.689Z,11.60
2022-09-06T00:13:36.915Z,10.57
2022-09-06T00:16:25.372Z,10.40
2022-09-06T00:18:55.451Z,13.25
2022-09-06T00:21:25.590Z,14.65
2022-09-06T00:23:53.395Z,13.02
2022-09-06T00:26:20.848Z,14.82
2022-09-06T00:28:47.535Z,15.18
2022-09-06T00:31:20.353Z,13.80
2022-09-06T00:33:47.212Z,12.85
2022-09-06T00:36:14.476Z,15.10
2022-09-06T00:38:41.677Z,16.10
2022-09-06T00:41:10.230Z,13.38
2022-09-06T00:43:37.685Z,13.88
2022-09-06T00:46:06.829Z,15.48
2022-09-06T00:48:35.555Z,14.77
2022-09-06T00:51:06.274Z,12.93
2022-09-06T00:53:33.295Z,15.50
2022-09-06T00:56:00.699Z,17.05
2022-09-06T00:58:28.047Z,16.83
2022-09-06T01:00:54.984Z,18.67
2022-09-06T01:03:24.422Z,17.17
2022-09-06T01:06:00.078Z,17.25
2022-09-06T01:09:02.744Z,18.38
2022-09-06T01:11:53.783Z,15.88
2022-09-06T01:14:20.392Z,16.48
2022-09-06T01:17:17.014Z,17.65
2022-09-06T01:20:11.308Z,19.43
2022-09-06T01:23:05.638Z,20.38
2022-09-06T01:26:02.725Z,17.63
2022-09-06T01:28:44.382Z,18.40
2022-09-06T01:31:11.148Z,20.95
2022-09-06T01:34:08.442Z,31.00
2022-09-06T01:37:06.228Z,24.05
2022-09-06T01:39:32.430Z,26.05
2022-09-06T01:42:05.934Z,27.33
2022-09-06T01:44:33.582Z,28.05
2022-09-06T01:47:19.189Z,28.52
2022-09-06T01:50:06.923Z,33.35
2022-09-06T01:53:02.775Z,35.35
2022-09-06T01:55:57.255Z,35.80
2022-09-06T01:58:45.739Z,34.85
2022-09-06T02:01:21.526Z,33.33
2022-09-06T02:04:11.853Z,32.25
2022-09-06T02:06:43.772Z,35.25
2022-09-06T02:09:17.113Z,31.60
2022-09-06T02:11:50.356Z,35.60
2022-09-06T02:14:23.448Z,35.70
2022-09-06T02:16:53.514Z,37.65
2022-09-06T02:19:43.435Z,33.25
2022-09-06T02:22:13.498Z,30.98
2022-09-06T02:24:44.691Z,29.88
2022-09-06T02:27:12.682Z,34.40
2022-09-06T02:29:39.538Z,35.85
2022-09-06T02:32:20.556Z,38.00
2022-09-06T02:34:48.458Z,29.55
2022-09-06T02:37:16.635Z,36.22
2022-09-06T02:39:43.324Z,33.28
2022-09-06T02:42:12.789Z,26.65
2022-09-06T02:44:39.430Z,33.03
2022-09-06T02:47:06.726Z,30.30
2022-09-06T02:49:33.371Z,36.75
2022-09-06T02:51:59.966Z,31.95
2022-09-06T02:54:26.615Z,36.25
2022-09-06T02:56:53.258Z,31.27
2022-09-06T02:59:20.073Z,32.90
2022-09-06T03:01:46.706Z,30.88
2022-09-06T03:04:13.397Z,33.63
2022-09-06T03:06:40.154Z,34.65
2022-09-06T03:09:06.805Z,32.63
2022-09-06T03:11:33.517Z,33.40
2022-09-06T03:14:00.074Z,34.45
2022-09-06T03:16:27.101Z,34.88
2022-09-06T03:18:53.781Z,36.20
2022-09-06T03:21:20.764Z,31.48
2022-09-06T03:23:47.449Z,37.00
2022-09-06T03:26:14.085Z,40.97
2022-09-06T03:28:40.932Z,36.60
2022-09-06T03:31:07.666Z,34.92
2022-09-06T03:33:34.524Z,40.42
2022-09-06T03:36:03.064Z,35.75
2022-09-06T03:38:30.061Z,39.25
2022-09-06T03:40:57.185Z,36.35
2022-09-06T03:43:25.647Z,37.95
2022-09-06T03:45:54.912Z,32.47
2022-09-06T03:48:23.568Z,36.45
2022-09-06T03:50:54.378Z,35.22
2022-09-06T03:53:21.815Z,32.63
2022-09-06T03:55:50.302Z,43.65
2022-09-06T03:58:19.227Z,32.42
2022-09-06T04:00:46.130Z,36.78
2022-09-06T04:03:13.609Z,31.60
2022-09-06T04:05:40.670Z,37.00
2022-09-06T04:08:07.446Z,33.58
2022-09-06T04:10:34.087Z,35.65
2022-09-06T04:13:00.767Z,35.45
2022-09-06T04:15:27.377Z,37.55
2022-09-06T04:17:54.029Z,29.48
2022-09-06T04:20:20.660Z,29.92
2022-09-06T04:22:47.261Z,28.52
2022-09-06T04:25:14.049Z,31.70
2022-09-06T04:27:40.750Z,29.23
2022-09-06T04:30:08.292Z,34.00
2022-09-06T04:32:34.964Z,31.02
2022-09-06T04:35:01.804Z,32.38
2022-09-06T04:37:28.314Z,27.50
2022-09-06T04:39:55.774Z,27.73
2022-09-06T04:42:22.609Z,30.00
2022-09-06T04:44:49.262Z,29.15
2022-09-06T04:47:18.088Z,26.27
2022-09-06T04:49:44.998Z,28.00
2022-09-06T04:52:12.173Z,25.67
2022-09-06T04:54:39.107Z,29.00
2022-09-06T04:57:05.970Z,30.52
2022-09-06T04:59:32.850Z,25.30
2022-09-06T05:01:59.498Z,28.02
2022-09-06T05:04:26.317Z,27.98
2022-09-06T05:07:03.517Z,29.70
2022-09-06T05:09:30.408Z,26.88
2022-09-06T05:11:57.222Z,24.92
2022-09-06T05:14:24.143Z,22.35
2022-09-06T05:16:50.853Z,24.13
2022-09-06T05:19:17.958Z,25.27
2022-09-06T05:21:45.159Z,22.08
2022-09-06T05:24:11.949Z,25.83
2022-09-06T05:26:38.580Z,24.98
2022-09-06T05:29:05.216Z,26.58
2022-09-06T05:31:34.072Z,24.17
2022-09-06T05:34:00.889Z,24.50
2022-09-06T05:36:28.645Z,26.38
2022-09-06T05:38:56.384Z,30.95
2022-09-06T05:41:23.847Z,29.08
2022-09-06T05:43:50.391Z,29.80
2022-09-06T05:46:17.264Z,30.38
2022-09-06T05:48:44.116Z,30.15
2022-09-06T05:51:13.043Z,30.45
2022-09-06T05:53:41.073Z,26.88
2022-09-06T05:56:08.752Z,28.08
2022-09-06T05:58:35.506Z,27.95
2022-09-06T06:01:18.694Z,26.23
2022-09-06T06:04:11.871Z,29.65
2022-09-06T06:06:38.428Z,24.52
2022-09-06T06:09:05.123Z,25.50
2022-09-06T06:11:32.007Z,23.15
2022-09-06T06:14:01.503Z,24.60
2022-09-06T06:16:28.124Z,25.90
2022-09-06T06:18:55.060Z,24.67
2022-09-06T06:21:33.254Z,23.85
2022-09-06T06:24:02.405Z,27.05
2022-09-06T06:26:31.709Z,28.23
2022-09-06T06:29:01.815Z,24.98
2022-09-06T06:31:33.177Z,26.88
2022-09-06T06:34:03.275Z,25.35
2022-09-06T06:36:31.691Z,22.65
2022-09-06T06:38:59.020Z,24.83
2022-09-06T06:41:28.016Z,25.05
2022-09-06T06:43:56.535Z,28.42
2022-09-06T06:46:31.951Z,26.33
2022-09-06T06:48:58.817Z,24.77
2022-09-06T06:51:28.461Z,24.25
2022-09-06T06:53:56.825Z,24.00
2022-09-06T06:56:26.368Z,23.02
2022-09-06T06:58:59.202Z,24.50
2022-09-06T07:01:28.559Z,24.52
2022-09-06T07:03:55.749Z,24.58
2022-09-06T07:09:10.100Z,24.55
2022-09-06T07:11:36.748Z,25.90
2022-09-06T07:14:03.879Z,26.98
2022-09-06T07:16:30.676Z,20.70
2022-09-06T07:18:57.307Z,22.55
2022-09-06T07:21:42.500Z,15.25
2022-09-06T07:24:10.063Z,16.73
2022-09-06T07:26:39.596Z,15.93
2022-09-06T07:29:07.824Z,14.77
2022-09-06T07:34:22.415Z,12.85
2022-09-06T07:36:52.479Z,12.18
2022-09-06T07:39:19.057Z,9.73
2022-09-06T07:41:45.603Z,9.90
2022-09-06T07:44:12.386Z,9.77
2022-09-06T07:46:39.741Z,9.90
2022-09-06T07:49:06.746Z,8.30
2022-09-06T07:51:33.480Z,7.50
2022-09-06T07:56:47.721Z,5.13
2022-09-06T07:59:14.561Z,4.93
2022-09-06T08:01:41.810Z,3.78
2022-09-06T08:04:14.258Z,3.60
2022-09-06T08:09:38.927Z,3.58
2022-09-06T08:12:08.666Z,3.50
2022-09-06T08:14:35.998Z,2.92
2022-09-06T08:17:04.327Z,3.35
2022-09-06T08:19:31.705Z,2.95
2022-09-06T08:21:58.663Z,3.40
2022-09-06T08:24:25.589Z,3.35
2022-09-06T08:26:52.560Z,3.10
2022-09-06T08:29:20.174Z,3.50
2022-09-06T08:31:47.571Z,3.22
2022-09-06T08:38:20.226Z,3.67
2022-09-06T08:40:46.965Z,3.38
2022-09-06T08:43:18.702Z,3.80
2022-09-06T08:45:52.524Z,3.42
2022-09-06T08:48:21.632Z,3.35
2022-09-06T08:51:12.102Z,3.03
2022-09-06T08:53:46.537Z,3.53
2022-09-06T08:56:21.437Z,3.40
2022-09-06T08:59:04.084Z,2.67
2022-09-06T09:02:02.103Z,3.20
2022-09-06T09:04:30.463Z,3.20
2022-09-06T09:07:21.134Z,2.95
2022-09-06T09:09:48.187Z,3.47
2022-09-06T09:12:17.792Z,2.92
2022-09-06T09:14:48.461Z,2.67
2022-09-06T09:17:25.984Z,2.97
2022-09-06T09:19:52.494Z,3.33
2022-09-06T09:22:19.963Z,3.05
2022-09-06T09:24:48.458Z,3.05
2022-09-06T09:27:20.459Z,3.42
2022-09-06T09:32:45.219Z,3.00
2022-09-06T09:35:26.708Z,2.95
2022-09-06T09:38:07.750Z,2.80
2022-09-06T09:40:41.939Z,2.90
2022-09-06T10:27:25.813Z,3.33
2022-09-06T10:30:03.418Z,3.08
2022-09-06T10:33:08.334Z,2.67
2022-09-06T10:35:38.373Z,2.40
2022-09-06T10:38:32.288Z,2.58
2022-09-06T10:41:14.010Z,2.30
2022-09-06T10:43:53.210Z,2.75
2022-09-06T10:46:25.924Z,2.30
2022-09-06T10:48:55.870Z,2.30
2022-09-06T10:51:28.448Z,2.20
2022-09-06T10:56:56.071Z,2.17
2022-09-06T11:02:34.158Z,2.28
2022-09-06T11:10:51.136Z,2.33
2022-09-06T11:13:21.136Z,2.50
2022-09-06T11:16:06.115Z,2.85
2022-09-06T11:19:05.500Z,2.47
2022-09-06T11:29:56.533Z,2.25
2022-09-06T11:32:40.869Z,2.95
2022-09-06T11:35:20.387Z,2.03
2022-09-06T11:43:51.513Z,2.22
2022-09-06T11:51:47.662Z,3.58
2022-09-06T11:54:41.964Z,2.95
2022-09-06T11:57:11.860Z,3.05
2022-09-06T11:59:52.385Z,2.30
2022-09-06T12:02:35.058Z,2.47
2022-09-06T12:05:03.171Z,2.55
2022-09-06T12:07:32.213Z,2.78
2022-09-06T12:10:02.093Z,2.78
2022-09-06T12:12:48.978Z,2.70
2022-09-06T12:15:44.497Z,2.67
2022-09-06T12:18:48.848Z,2.83
2022-09-06T12:21:34.158Z,2.53
2022-09-06T12:24:01.644Z,2.40
2022-09-06T12:26:55.573Z,2.83
2022-09-06T12:29:26.696Z,2.22
2022-09-06T12:32:01.710Z,2.72
2022-09-06T12:34:34.565Z,2.42
2022-09-06T12:37:04.502Z,2.58
2022-09-06T12:39:31.844Z,2.65
2022-09-06T12:42:04.967Z,2.80
2022-09-06T12:44:42.889Z,2.55
2022-09-06T12:47:26.666Z,2.30
2022-09-06T12:50:19.318Z,3.30
2022-09-06T12:52:47.551Z,2.55
2022-09-06T12:55:38.464Z,3.20
2022-09-06T12:58:07.753Z,2.80
2022-09-06T13:00:44.259Z,3.03
2022-09-06T13:03:19.785Z,2.88
2022-09-06T13:05:46.583Z,2.65
2022-09-06T13:08:16.934Z,3.53
2022-09-06T13:10:46.495Z,2.92
2022-09-06T13:13:22.183Z,3.22
2022-09-06T13:15:49.082Z,3.35
2022-09-06T13:18:31.324Z,3.70
2022-09-06T13:21:07.419Z,3.17
2022-09-06T13:23:49.763Z,3.47
2022-09-06T13:26:36.432Z,4.47
2022-09-06T13:29:29.331Z,5.35
2022-09-06T13:31:57.890Z,4.15
2022-09-06T13:34:27.733Z,3.88
2022-09-06T13:37:01.319Z,3.45
2022-09-06T13:39:37.935Z,3.08
2022-09-06T13:42:37.451Z,2.65
2022-09-06T13:45:30.357Z,2.10
2022-09-06T13:48:47.142Z,2.00
2022-09-06T13:52:03.535Z,2.00
2022-09-06T13:54:31.728Z,2.30
2022-09-06T13:56:58.826Z,1.75
2022-09-06T13:59:25.618Z,2.17
2022-09-06T14:02:04.032Z,1.50
2022-09-06T14:04:33.614Z,2.28
2022-09-06T14:07:00.338Z,1.95
2022-09-06T14:09:27.057Z,2.05
2022-09-06T14:11:56.444Z,2.55
2022-09-06T14:14:28.522Z,2.00
2022-09-06T14:16:55.291Z,4.03
2022-09-06T14:19:24.966Z,4.10
2022-09-06T14:21:52.676Z,2.85
2022-09-06T14:24:19.561Z,2.63
2022-09-06T14:26:46.123Z,2.10
2022-09-06T14:29:15.664Z,2.20
2022-09-06T14:31:42.263Z,4.22
2022-09-06T14:34:08.895Z,2.50
2022-09-06T14:36:36.746Z,2.70
2022-09-06T14:39:17.794Z,2.90
2022-09-06T14:41:49.316Z,2.47
2022-09-06T14:44:16.012Z,2.40
2022-09-06T14:46:42.872Z,3.08
2022-09-06T14:49:11.643Z,2.60
2022-09-06T14:51:46.599Z,2.38
2022-09-06T14:54:20.128Z,2.80
2022-09-06T14:56:49.334Z,2.20
2022-09-06T14:59:44.510Z,2.65
2022-09-06T15:02:11.593Z,2.67
2022-09-06T15:04:59.011Z,2.40
2022-09-06T15:07:29.270Z,2.70
2022-09-06T15:10:05.653Z,2.70
2022-09-06T15:12:42.545Z,2.65
2022-09-06T15:15:22.285Z,2.83
2022-09-06T15:19:08.763Z,2.50
2022-09-06T15:22:03.162Z,2.33
2022-09-06T15:25:20.862Z,3.00
2022-09-06T15:27:59.788Z,2.55
2022-09-06T15:30:57.768Z,2.50
2022-09-06T15:33:25.765Z,2.60
2022-09-06T15:36:02.176Z,2.97
2022-09-06T15:38:57.761Z,2.50
2022-09-06T15:42:00.132Z,2.90
2022-09-06T15:44:33.395Z,2.53
2022-09-06T15:47:00.315Z,3.08
2022-09-06T15:49:32.360Z,2.92
2022-09-06T15:52:14.381Z,5.05
2022-09-06T15:54:59.502Z,3.30
2022-09-06T15:57:26.161Z,3.20
2022-09-06T15:59:55.501Z,3.20
2022-09-06T16:02:22.118Z,3.08
2022-09-06T16:04:48.765Z,2.28
2022-09-06T16:07:15.480Z,2.75
2022-09-06T16:09:42.569Z,3.15
2022-09-06T16:12:09.388Z,2.25
2022-09-06T16:14:37.065Z,2.53
2022-09-06T16:17:03.763Z,3.20
2022-09-06T16:19:30.309Z,2.65
2022-09-06T16:21:59.047Z,3.55
2022-09-06T16:24:26.549Z,3.90
2022-09-06T16:26:56.698Z,3.08
2022-09-06T16:29:23.295Z,3.38
2022-09-06T16:31:50.576Z,4.65
2022-09-06T16:34:17.203Z,2.97
2022-09-06T16:36:43.892Z,3.92
2022-09-06T16:39:10.970Z,4.05
2022-09-06T16:41:41.269Z,4.25
2022-09-06T16:44:09.965Z,4.60
2022-09-06T16:46:36.662Z,4.53
2022-09-06T16:49:04.513Z,5.28
2022-09-06T16:51:32.027Z,6.72
2022-09-06T16:54:02.721Z,7.63
2022-09-06T16:56:36.136Z,7.22
2022-09-06T16:59:09.124Z,4.80
2022-09-06T17:01:43.303Z,4.80
2022-09-06T17:04:10.763Z,3.08
2022-09-06T17:06:45.819Z,2.70
2022-09-06T17:09:14.839Z,2.60
2022-09-06T17:11:41.675Z,3.38
2022-09-06T17:14:08.507Z,3.58
2022-09-06T17:16:53.754Z,1.85
2022-09-06T17:19:20.513Z,2.10
2022-09-06T17:21:47.757Z,2.22
2022-09-06T17:24:17.050Z,1.80
2022-09-06T17:26:43.630Z,2.00
2022-09-06T17:29:10.521Z,2.60
2022-09-06T17:31:38.149Z,2.63
2022-09-06T17:34:06.850Z,2.35
2022-09-06T17:36:34.137Z,2.75
2022-09-06T17:39:10.215Z,2.55
2022-09-06T17:41:43.065Z,3.05
2022-09-06T17:44:11.356Z,3.53
2022-09-06T17:46:57.036Z,3.40
2022-09-06T17:49:28.434Z,3.95
2022-09-06T17:51:55.220Z,4.28
2022-09-06T17:54:21.885Z,4.28
2022-09-06T17:56:52.014Z,4.10
2022-09-06T17:59:18.881Z,3.20
2022-09-06T18:01:50.920Z,3.17
2022-09-06T18:04:18.143Z,3.55
2022-09-06T18:06:46.963Z,3.10
2022-09-06T18:09:18.503Z,3.13
2022-09-06T18:11:46.875Z,4.10
2022-09-06T18:14:16.739Z,3.38
2022-09-06T18:16:49.536Z,4.18
2022-09-06T18:19:17.785Z,3.67
2022-09-06T18:21:50.478Z,3.97
2022-09-06T18:24:20.284Z,4.40
2022-09-06T18:26:50.487Z,4.43
2022-09-06T18:29:18.610Z,4.00
2022-09-06T18:31:46.061Z,3.58
2022-09-06T18:34:16.967Z,3.72
2022-09-06T18:36:45.857Z,4.10
2022-09-06T18:39:19.349Z,4.00
2022-09-06T18:42:00.754Z,3.95
2022-09-06T18:44:33.957Z,3.67
2022-09-06T18:47:03.850Z,3.80
2022-09-06T18:49:31.101Z,3.45
2022-09-06T18:51:59.069Z,3.67
2022-09-06T18:54:31.340Z,3.40
2022-09-06T19:00:13.535Z,3.70
2022-09-06T19:02:46.817Z,3.50
2022-09-06T19:05:17.064Z,2.90
2022-09-06T19:07:52.393Z,3.65
2022-09-06T19:10:31.343Z,3.40
2022-09-06T19:13:00.541Z,2.90
2022-09-06T19:15:52.643Z,3.15
2022-09-06T19:18:58.000Z,2.53
2022-09-06T19:22:06.598Z,3.05
2022-09-06T19:24:26.561Z,2.92
2022-09-06T19:27:20.432Z,3.60
2022-09-06T19:33:21.385Z,3.45
2022-09-06T19:36:09.890Z,4.45
2022-09-06T19:39:05.320Z,4.15
2022-09-06T19:41:47.492Z,3.35
2022-09-06T19:44:17.938Z,2.78
2022-09-06T19:47:09.046Z,2.70
2022-09-06T19:49:48.236Z,3.25
2022-09-06T19:52:35.153Z,2.53
2022-09-06T19:55:19.237Z,2.22
2022-09-06T19:57:48.832Z,2.17
2022-09-06T20:00:35.528Z,2.67
2022-09-06T20:03:19.167Z,2.35
2022-09-06T20:05:46.317Z,2.50
2022-09-06T20:08:13.710Z,1.80
2022-09-06T20:10:55.119Z,2.03
2022-09-06T20:13:25.537Z,2.33
2022-09-06T20:15:54.863Z,2.20
2022-09-06T20:18:22.370Z,2.00
2022-09-06T20:21:27.955Z,1.60
2022-09-06T20:23:58.613Z,1.65
2022-09-06T20:26:30.497Z,1.33
2022-09-06T20:29:15.456Z,2.05
2022-09-06T20:31:50.210Z,1.85
2022-09-06T20:34:28.667Z,1.77
2022-09-06T20:36:55.273Z,1.80
2022-09-06T20:39:26.010Z,1.60
2022-09-06T20:41:59.794Z,1.85
2022-09-06T20:44:42.581Z,2.15
2022-09-06T20:47:32.176Z,1.90
2022-09-06T20:49:59.073Z,1.65
2022-09-06T20:52:34.857Z,1.60
2022-09-06T20:55:10.051Z,1.88
2022-09-06T20:57:40.188Z,1.50
2022-09-06T21:00:16.342Z,1.65
2022-09-06T21:02:48.791Z,1.60
2022-09-06T21:05:17.836Z,1.92
2022-09-06T21:07:46.581Z,2.50
2022-09-06T21:10:23.956Z,1.75
2022-09-06T21:12:52.946Z,2.00
2022-09-06T21:15:35.627Z,1.83
2022-09-06T21:18:28.958Z,2.13
2022-09-06T21:21:12.136Z,1.70
2022-09-06T21:23:42.941Z,2.10
2022-09-06T21:26:24.922Z,1.90
2022-09-06T21:28:55.851Z,1.75
2022-09-06T21:31:34.028Z,1.60
2022-09-06T21:34:09.050Z,2.30
2022-09-06T21:37:28.064Z,2.20
2022-09-06T21:39:57.463Z,1.83
2022-09-06T21:42:49.200Z,2.20
2022-09-06T21:45:23.158Z,1.92
2022-09-06T21:47:53.746Z,2.10
2022-09-06T21:50:50.313Z,2.35
2022-09-06T21:56:30.256Z,2.30
2022-09-06T21:58:59.331Z,1.90
2022-09-06T22:01:32.041Z,1.85
2022-09-06T22:04:16.743Z,1.40
2022-09-06T22:06:43.607Z,2.05
2022-09-06T22:09:12.084Z,1.63
2022-09-06T22:11:40.625Z,2.25
2022-09-06T22:14:09.522Z,1.92
2022-09-06T22:16:38.775Z,2.05
2022-09-06T22:19:07.481Z,2.28
2022-09-06T22:21:34.789Z,2.03
2022-09-06T22:24:04.095Z,1.80
2022-09-06T22:26:35.324Z,1.85
2022-09-06T22:29:05.227Z,1.80
2022-09-06T22:31:36.667Z,2.20
2022-09-06T22:34:04.272Z,2.40
2022-09-06T22:36:33.784Z,2.38
2022-09-06T22:39:00.566Z,1.95
2022-09-06T22:41:30.135Z,2.20
2022-09-06T22:43:59.679Z,2.10
2022-09-06T22:46:31.458Z,1.92
2022-09-06T22:49:01.387Z,2.05
2022-09-06T22:51:28.095Z,2.22
2022-09-06T22:53:54.823Z,2.10
2022-09-06T22:56:21.729Z,3.35
2022-09-06T22:58:48.589Z,3.90
2022-09-06T23:01:16.822Z,2.80
2022-09-06T23:03:44.341Z,3.30
2022-09-06T23:06:11.551Z,2.97
2022-09-06T23:08:39.517Z,2.38
2022-09-06T23:11:12.063Z,2.63
2022-09-06T23:13:43.549Z,2.40
2022-09-06T23:16:13.662Z,2.33
2022-09-06T23:18:43.023Z,2.50
2022-09-06T23:21:13.348Z,2.45
2022-09-06T23:23:40.906Z,3.08
2022-09-06T23:26:13.209Z,2.72
2022-09-06T23:28:40.233Z,2.35
2022-09-06T23:31:11.098Z,2.97
2022-09-06T23:33:38.355Z,2.83
2022-09-06T23:36:08.803Z,2.97
2022-09-06T23:38:36.975Z,3.00
2022-09-06T23:41:04.550Z,2.22
2022-09-06T23:43:31.886Z,3.25
2022-09-06T23:45:58.882Z,3.22
2022-09-06T23:48:25.865Z,3.50
2022-09-06T23:50:55.265Z,2.80
2022-09-06T23:53:21.935Z,2.80
2022-09-06T23:55:48.611Z,2.85
2022-09-06T23:58:15.274Z,2.70
